sensor_id;sensor_type;location;lat;lon;timestamp;pressure;altitude;pressure_sealevel;temperature;humidity
19596;BME280;9945;46.010;8.946;2022-12-29T00:02:22;97872.16;;;9.88;81.09
19596;BME280;9945;46.010;8.946;2022-12-29T00:04:49;97872.16;;;9.88;81.68
19596;BME280;9945;46.010;8.946;2022-12-29T00:07:16;97867.28;;;9.63;81.92
19596;BME280;9945;46.010;8.946;2022-12-29T00:09:43;97864.13;;;9.60;82.81
19596;BME280;9945;46.010;8.946;2022-12-29T00:12:10;97856.72;;;9.65;81.95
19596;BME280;9945;46.010;8.946;2022-12-29T00:14:38;97850.81;;;9.83;79.85
19596;BME280;9945;46.010;8.946;2022-12-29T00:17:22;97851.22;;;9.88;79.50
19596;BME280;9945;46.010;8.946;2022-12-29T00:19:49;97856.38;;;9.79;81.28
19596;BME280;9945;46.010;8.946;2022-12-29T00:22:33;97858.81;;;9.71;81.27
19596;BME280;9945;46.010;8.946;2022-12-29T00:25:23;97850.28;;;9.69;81.90
19596;BME280;9945;46.010;8.946;2022-12-29T00:28:08;97841.81;;;9.76;82.49
19596;BME280;9945;46.010;8.946;2022-12-29T00:30:58;97842.84;;;9.85;80.79
19596;BME280;9945;46.010;8.946;2022-12-29T00:33:43;97845.06;;;9.90;80.91
19596;BME280;9945;46.010;8.946;2022-12-29T00:36:30;97845.75;;;9.92;81.87
19596;BME280;9945;46.010;8.946;2022-12-29T00:39:00;97847.97;;;9.96;81.46
19596;BME280;9945;46.010;8.946;2022-12-29T00:41:45;97841.91;;;9.96;80.63
19596;BME280;9945;46.010;8.946;2022-12-29T00:44:29;97836.97;;;9.93;81.71
19596;BME280;9945;46.010;8.946;2022-12-29T00:46:58;97831.59;;;9.94;81.07
19596;BME280;9945;46.010;8.946;2022-12-29T00:49:27;97831.25;;;9.87;81.93
19596;BME280;9945;46.010;8.946;2022-12-29T00:51:58;97827.44;;;9.92;82.57
19596;BME280;9945;46.010;8.946;2022-12-29T00:54:25;97831.72;;;9.93;82.63
19596;BME280;9945;46.010;8.946;2022-12-29T00:56:53;97834.34;;;9.93;82.06
19596;BME280;9945;46.010;8.946;2022-12-29T00:59:20;97835.41;;;9.90;82.91
19596;BME280;9945;46.010;8.946;2022-12-29T01:01:50;97823.81;;;9.83;84.00
19596;BME280;9945;46.010;8.946;2022-12-29T01:04:18;97829.88;;;9.83;83.31
19596;BME280;9945;46.010;8.946;2022-12-29T01:06:46;97818.78;;;9.91;82.43
19596;BME280;9945;46.010;8.946;2022-12-29T01:09:12;97825.41;;;9.95;83.06
19596;BME280;9945;46.010;8.946;2022-12-29T01:11:57;97824.31;;;9.98;81.41
19596;BME280;9945;46.010;8.946;2022-12-29T01:14:25;97819.59;;;9.92;82.32
19596;BME280;9945;46.010;8.946;2022-12-29T01:16:52;97818.38;;;9.96;82.23
19596;BME280;9945;46.010;8.946;2022-12-29T01:19:21;97823.88;;;9.93;80.92
19596;BME280;9945;46.010;8.946;2022-12-29T01:21:48;97825.59;;;9.82;81.64
19596;BME280;9945;46.010;8.946;2022-12-29T01:24:16;97828.66;;;9.87;82.12
19596;BME280;9945;46.010;8.946;2022-12-29T01:26:44;97829.94;;;9.93;81.49
19596;BME280;9945;46.010;8.946;2022-12-29T01:29:11;97832.56;;;9.93;81.25
19596;BME280;9945;46.010;8.946;2022-12-29T01:31:38;97841.34;;;9.92;81.17
19596;BME280;9945;46.010;8.946;2022-12-29T01:34:05;97833.50;;;9.92;80.89
19596;BME280;9945;46.010;8.946;2022-12-29T01:36:33;97834.72;;;9.88;81.50
19596;BME280;9945;46.010;8.946;2022-12-29T01:39:01;97831.97;;;9.90;80.99
19596;BME280;9945;46.010;8.946;2022-12-29T01:41:28;97834.47;;;9.91;81.62
19596;BME280;9945;46.010;8.946;2022-12-29T01:43:56;97834.47;;;9.91;81.05
19596;BME280;9945;46.010;8.946;2022-12-29T01:46:26;97843.03;;;9.93;81.24
19596;BME280;9945;46.010;8.946;2022-12-29T01:48:59;97836.78;;;9.84;81.48
19596;BME280;9945;46.010;8.946;2022-12-29T01:51:30;97834.66;;;9.58;84.59
19596;BME280;9945;46.010;8.946;2022-12-29T01:54:02;97837.81;;;9.61;84.65
19596;BME280;9945;46.010;8.946;2022-12-29T01:56:32;97836.63;;;9.65;83.90
19596;BME280;9945;46.010;8.946;2022-12-29T01:59:02;97830.63;;;9.74;83.90
19596;BME280;9945;46.010;8.946;2022-12-29T02:01:30;97823.63;;;9.75;83.15
19596;BME280;9945;46.010;8.946;2022-12-29T02:03:57;97834.16;;;9.84;84.08
19596;BME280;9945;46.010;8.946;2022-12-29T02:06:28;97830.72;;;9.84;83.57
19596;BME280;9945;46.010;8.946;2022-12-29T02:08:59;97826.13;;;9.76;82.88
19596;BME280;9945;46.010;8.946;2022-12-29T02:11:28;97828.84;;;9.75;82.19
19596;BME280;9945;46.010;8.946;2022-12-29T02:13:55;97820.25;;;9.84;82.18
19596;BME280;9945;46.010;8.946;2022-12-29T02:16:31;97822.22;;;9.71;83.67
19596;BME280;9945;46.010;8.946;2022-12-29T02:19:14;97820.38;;;9.82;82.96
19596;BME280;9945;46.010;8.946;2022-12-29T02:22:01;97821.34;;;9.61;84.78
19596;BME280;9945;46.010;8.946;2022-12-29T02:25:09;97828.69;;;9.35;86.94
19596;BME280;9945;46.010;8.946;2022-12-29T02:27:50;97825.59;;;9.62;83.94
19596;BME280;9945;46.010;8.946;2022-12-29T02:30:42;97818.75;;;9.70;84.77
19596;BME280;9945;46.010;8.946;2022-12-29T02:33:21;97819.16;;;9.66;84.35
19596;BME280;9945;46.010;8.946;2022-12-29T02:35:56;97819.16;;;9.66;85.02
19596;BME280;9945;46.010;8.946;2022-12-29T02:38:32;97819.41;;;9.63;85.69
19596;BME280;9945;46.010;8.946;2022-12-29T02:41:07;97821.31;;;9.40;85.33
19596;BME280;9945;46.010;8.946;2022-12-29T02:43:39;97821.19;;;9.41;86.10
19596;BME280;9945;46.010;8.946;2022-12-29T02:46:17;97814.44;;;9.60;84.52
19596;BME280;9945;46.010;8.946;2022-12-29T02:48:52;97817.69;;;9.73;83.93
19596;BME280;9945;46.010;8.946;2022-12-29T02:51:24;97814.72;;;9.77;84.48
19596;BME280;9945;46.010;8.946;2022-12-29T02:53:53;97811.94;;;9.79;84.24
19596;BME280;9945;46.010;8.946;2022-12-29T02:56:38;97805.63;;;9.81;84.23
19596;BME280;9945;46.010;8.946;2022-12-29T02:59:05;97813.28;;;9.73;84.62
19596;BME280;9945;46.010;8.946;2022-12-29T03:01:45;97803.03;;;9.81;84.37
19596;BME280;9945;46.010;8.946;2022-12-29T03:04:37;97802.50;;;9.87;83.97
19596;BME280;9945;46.010;8.946;2022-12-29T03:07:11;97797.25;;;9.87;82.93
19596;BME280;9945;46.010;8.946;2022-12-29T03:09:50;97804.28;;;9.87;83.33
19596;BME280;9945;46.010;8.946;2022-12-29T03:12:26;97796.84;;;9.82;82.67
19596;BME280;9945;46.010;8.946;2022-12-29T03:15:20;97792.44;;;9.62;84.20
19596;BME280;9945;46.010;8.946;2022-12-29T03:18:10;97798.41;;;9.53;85.34
19596;BME280;9945;46.010;8.946;2022-12-29T03:20:46;97795.38;;;9.48;83.89
19596;BME280;9945;46.010;8.946;2022-12-29T03:23:16;97793.91;;;9.55;83.51
19596;BME280;9945;46.010;8.946;2022-12-29T03:25:47;97792.63;;;9.70;83.04
19596;BME280;9945;46.010;8.946;2022-12-29T03:28:18;97792.38;;;9.73;82.21
19596;BME280;9945;46.010;8.946;2022-12-29T03:30:47;97794.88;;;9.75;81.42
19596;BME280;9945;46.010;8.946;2022-12-29T03:33:18;97796.53;;;9.76;82.04
19596;BME280;9945;46.010;8.946;2022-12-29T03:35:46;97792.94;;;9.56;82.09
19596;BME280;9945;46.010;8.946;2022-12-29T03:38:16;97797.84;;;9.70;79.67
19596;BME280;9945;46.010;8.946;2022-12-29T03:40:48;97796.06;;;9.71;78.68
19596;BME280;9945;46.010;8.946;2022-12-29T03:43:17;97790.28;;;9.67;79.28
19596;BME280;9945;46.010;8.946;2022-12-29T03:45:44;97784.97;;;9.58;78.62
19596;BME280;9945;46.010;8.946;2022-12-29T03:48:11;97779.34;;;9.62;78.52
19596;BME280;9945;46.010;8.946;2022-12-29T03:50:39;97783.09;;;9.60;78.54
19596;BME280;9945;46.010;8.946;2022-12-29T03:53:06;97781.50;;;9.36;78.54
19596;BME280;9945;46.010;8.946;2022-12-29T03:55:33;97781.00;;;9.22;79.85
19596;BME280;9945;46.010;8.946;2022-12-29T03:58:00;97780.56;;;9.17;79.60
19596;BME280;9945;46.010;8.946;2022-12-29T04:00:27;97767.00;;;9.23;79.75
19596;BME280;9945;46.010;8.946;2022-12-29T04:02:54;97766.81;;;9.35;79.94
19596;BME280;9945;46.010;8.946;2022-12-29T04:05:21;97763.41;;;9.44;77.89
19596;BME280;9945;46.010;8.946;2022-12-29T04:07:49;97761.63;;;9.24;79.33
19596;BME280;9945;46.010;8.946;2022-12-29T04:10:16;97760.06;;;9.33;77.80
19596;BME280;9945;46.010;8.946;2022-12-29T04:12:43;97760.81;;;9.44;78.23
19596;BME280;9945;46.010;8.946;2022-12-29T04:15:11;97755.66;;;9.54;77.77
19596;BME280;9945;46.010;8.946;2022-12-29T04:17:38;97765.84;;;9.57;77.81
19596;BME280;9945;46.010;8.946;2022-12-29T04:20:06;97763.00;;;9.60;76.83
19596;BME280;9945;46.010;8.946;2022-12-29T04:22:59;97757.63;;;9.41;76.77
19596;BME280;9945;46.010;8.946;2022-12-29T04:25:25;97753.13;;;9.43;75.97
19596;BME280;9945;46.010;8.946;2022-12-29T04:27:53;97756.34;;;9.56;76.47
19596;BME280;9945;46.010;8.946;2022-12-29T04:30:20;97746.84;;;9.55;76.61
19596;BME280;9945;46.010;8.946;2022-12-29T04:32:46;97748.72;;;9.43;77.69
19596;BME280;9945;46.010;8.946;2022-12-29T04:35:13;97754.94;;;9.31;78.41
19596;BME280;9945;46.010;8.946;2022-12-29T04:37:40;97753.88;;;9.34;77.96
19596;BME280;9945;46.010;8.946;2022-12-29T04:40:10;97754.44;;;9.37;78.53
19596;BME280;9945;46.010;8.946;2022-12-29T04:42:37;97749.75;;;9.52;76.17
19596;BME280;9945;46.010;8.946;2022-12-29T04:45:05;97748.31;;;9.48;74.15
19596;BME280;9945;46.010;8.946;2022-12-29T04:47:32;97751.69;;;9.39;74.69
19596;BME280;9945;46.010;8.946;2022-12-29T04:49:59;97755.53;;;9.35;74.44
19596;BME280;9945;46.010;8.946;2022-12-29T04:52:26;97758.97;;;9.35;75.85
19596;BME280;9945;46.010;8.946;2022-12-29T04:54:52;97754.94;;;9.31;75.70
19596;BME280;9945;46.010;8.946;2022-12-29T04:57:21;97758.50;;;9.30;74.64
19596;BME280;9945;46.010;8.946;2022-12-29T04:59:47;97758.50;;;9.30;74.76
19596;BME280;9945;46.010;8.946;2022-12-29T05:02:14;97755.34;;;9.27;75.28
19596;BME280;9945;46.010;8.946;2022-12-29T05:04:41;97761.38;;;9.27;76.05
19596;BME280;9945;46.010;8.946;2022-12-29T05:07:08;97770.69;;;9.41;73.85
19596;BME280;9945;46.010;8.946;2022-12-29T05:09:35;97776.00;;;9.51;75.59
19596;BME280;9945;46.010;8.946;2022-12-29T05:12:02;97770.59;;;9.42;74.70
19596;BME280;9945;46.010;8.946;2022-12-29T05:14:30;97774.38;;;9.38;75.25
19596;BME280;9945;46.010;8.946;2022-12-29T05:16:57;97772.81;;;9.47;73.89
19596;BME280;9945;46.010;8.946;2022-12-29T05:19:24;97770.31;;;9.45;72.25
19596;BME280;9945;46.010;8.946;2022-12-29T05:21:51;97757.56;;;9.31;73.62
19596;BME280;9945;46.010;8.946;2022-12-29T05:24:18;97761.63;;;9.24;74.06
19596;BME280;9945;46.010;8.946;2022-12-29T05:26:44;97763.19;;;9.27;72.14
19596;BME280;9945;46.010;8.946;2022-12-29T05:29:11;97770.81;;;9.39;72.56
19596;BME280;9945;46.010;8.946;2022-12-29T05:31:39;97771.47;;;9.53;72.25
19596;BME280;9945;46.010;8.946;2022-12-29T05:34:06;97776.91;;;9.61;71.54
19596;BME280;9945;46.010;8.946;2022-12-29T05:36:33;97774.00;;;9.64;71.91
19596;BME280;9945;46.010;8.946;2022-12-29T05:39:00;97781.72;;;9.65;70.75
19596;BME280;9945;46.010;8.946;2022-12-29T05:41:27;97778.09;;;9.57;71.55
19596;BME280;9945;46.010;8.946;2022-12-29T05:43:53;97780.75;;;9.45;72.74
19596;BME280;9945;46.010;8.946;2022-12-29T05:46:20;97775.22;;;9.39;73.25
19596;BME280;9945;46.010;8.946;2022-12-29T05:48:48;97770.50;;;9.33;73.09
19596;BME280;9945;46.010;8.946;2022-12-29T05:51:15;97781.34;;;9.49;74.16
19596;BME280;9945;46.010;8.946;2022-12-29T05:53:42;97791.28;;;9.55;73.87
19596;BME280;9945;46.010;8.946;2022-12-29T05:56:09;97790.97;;;9.48;73.58
19596;BME280;9945;46.010;8.946;2022-12-29T05:58:36;97788.94;;;9.52;74.33
19596;BME280;9945;46.010;8.946;2022-12-29T06:01:03;97784.13;;;9.36;73.85
19596;BME280;9945;46.010;8.946;2022-12-29T06:03:30;97787.66;;;9.26;75.06
19596;BME280;9945;46.010;8.946;2022-12-29T06:05:58;97774.59;;;9.26;74.72
19596;BME280;9945;46.010;8.946;2022-12-29T06:08:25;97781.94;;;9.21;74.46
19596;BME280;9945;46.010;8.946;2022-12-29T06:10:51;97786.94;;;9.24;74.08
19596;BME280;9945;46.010;8.946;2022-12-29T06:13:18;97783.16;;;9.17;75.55
19596;BME280;9945;46.010;8.946;2022-12-29T06:15:47;97776.59;;;9.22;76.17
19596;BME280;9945;46.010;8.946;2022-12-29T06:18:14;97764.38;;;9.23;76.43
19596;BME280;9945;46.010;8.946;2022-12-29T06:20:42;97766.47;;;9.29;76.81
19596;BME280;9945;46.010;8.946;2022-12-29T06:23:10;97762.41;;;9.15;77.21
19596;BME280;9945;46.010;8.946;2022-12-29T06:25:37;97771.22;;;9.35;76.50
19596;BME280;9945;46.010;8.946;2022-12-29T06:28:04;97768.09;;;9.41;75.81
19596;BME280;9945;46.010;8.946;2022-12-29T06:30:31;97765.53;;;9.30;74.99
19596;BME280;9945;46.010;8.946;2022-12-29T06:32:58;97767.50;;;9.17;75.48
19596;BME280;9945;46.010;8.946;2022-12-29T06:35:25;97764.44;;;9.32;74.46
19596;BME280;9945;46.010;8.946;2022-12-29T06:37:52;97761.25;;;9.29;74.95
19596;BME280;9945;46.010;8.946;2022-12-29T06:40:20;97765.31;;;9.22;76.52
19596;BME280;9945;46.010;8.946;2022-12-29T06:42:48;97772.53;;;9.08;77.44
19596;BME280;9945;46.010;8.946;2022-12-29T06:45:15;97769.22;;;9.27;76.53
19596;BME280;9945;46.010;8.946;2022-12-29T06:47:42;97765.09;;;9.25;77.04
19596;BME280;9945;46.010;8.946;2022-12-29T06:50:09;97766.03;;;9.24;76.87
19596;BME280;9945;46.010;8.946;2022-12-29T06:52:35;97770.75;;;9.30;76.90
19596;BME280;9945;46.010;8.946;2022-12-29T06:55:04;97775.66;;;9.23;76.08
19596;BME280;9945;46.010;8.946;2022-12-29T06:57:33;97773.81;;;9.03;77.96
19596;BME280;9945;46.010;8.946;2022-12-29T07:00:00;97775.66;;;8.91;79.05
19596;BME280;9945;46.010;8.946;2022-12-29T07:02:27;97778.16;;;8.93;77.91
19596;BME280;9945;46.010;8.946;2022-12-29T07:04:53;97784.56;;;8.89;79.90
19596;BME280;9945;46.010;8.946;2022-12-29T07:07:20;97777.97;;;9.05;78.16
19596;BME280;9945;46.010;8.946;2022-12-29T07:09:47;97784.66;;;8.98;77.99
19596;BME280;9945;46.010;8.946;2022-12-29T07:12:14;97785.72;;;8.96;78.80
19596;BME280;9945;46.010;8.946;2022-12-29T07:14:42;97784.66;;;8.98;79.80
19596;BME280;9945;46.010;8.946;2022-12-29T07:17:09;97792.50;;;8.98;78.71
19596;BME280;9945;46.010;8.946;2022-12-29T07:19:36;97801.25;;;9.08;78.04
19596;BME280;9945;46.010;8.946;2022-12-29T07:22:03;97797.72;;;8.98;78.09
19596;BME280;9945;46.010;8.946;2022-12-29T07:24:30;97796.03;;;9.29;77.74
19596;BME280;9945;46.010;8.946;2022-12-29T07:26:57;97798.84;;;9.37;75.82
19596;BME280;9945;46.010;8.946;2022-12-29T07:29:24;97796.03;;;9.29;78.06
19596;BME280;9945;46.010;8.946;2022-12-29T07:31:52;97795.41;;;9.16;76.94
19596;BME280;9945;46.010;8.946;2022-12-29T07:34:19;97795.28;;;9.18;77.47
19596;BME280;9945;46.010;8.946;2022-12-29T07:36:46;97809.81;;;9.31;76.30
19596;BME280;9945;46.010;8.946;2022-12-29T07:39:13;97810.88;;;9.29;76.93
19596;BME280;9945;46.010;8.946;2022-12-29T07:41:39;97815.97;;;9.41;76.20
19596;BME280;9945;46.010;8.946;2022-12-29T07:44:08;97815.13;;;9.62;73.45
19596;BME280;9945;46.010;8.946;2022-12-29T07:46:35;97824.53;;;9.32;74.85
19596;BME280;9945;46.010;8.946;2022-12-29T07:49:03;97819.13;;;9.24;77.27
19596;BME280;9945;46.010;8.946;2022-12-29T07:51:30;97821.44;;;9.38;76.53
19596;BME280;9945;46.010;8.946;2022-12-29T07:53:57;97835.47;;;9.58;74.32
19596;BME280;9945;46.010;8.946;2022-12-29T07:56:25;97826.81;;;9.58;74.52
19596;BME280;9945;46.010;8.946;2022-12-29T07:58:52;97828.63;;;9.78;74.48
19596;BME280;9945;46.010;8.946;2022-12-29T08:01:19;97829.75;;;9.64;74.64
19596;BME280;9945;46.010;8.946;2022-12-29T08:03:46;97822.84;;;9.63;76.37
19596;BME280;9945;46.010;8.946;2022-12-29T08:06:14;97830.25;;;9.79;74.43
19596;BME280;9945;46.010;8.946;2022-12-29T08:08:41;97827.69;;;10.09;73.58
19596;BME280;9945;46.010;8.946;2022-12-29T08:11:08;97831.00;;;10.11;72.80
19596;BME280;9945;46.010;8.946;2022-12-29T08:13:35;97831.09;;;10.00;73.51
19596;BME280;9945;46.010;8.946;2022-12-29T08:16:02;97836.78;;;10.15;73.52
19596;BME280;9945;46.010;8.946;2022-12-29T08:18:29;97843.19;;;10.22;72.70
19596;BME280;9945;46.010;8.946;2022-12-29T08:20:55;97838.97;;;10.31;72.76
19596;BME280;9945;46.010;8.946;2022-12-29T08:23:28;97844.25;;;10.40;73.04
19596;BME280;9945;46.010;8.946;2022-12-29T08:25:57;97837.84;;;10.54;72.38
19596;BME280;9945;46.010;8.946;2022-12-29T08:28:24;97841.31;;;10.64;72.47
19596;BME280;9945;46.010;8.946;2022-12-29T08:30:51;97838.19;;;10.70;72.58
19596;BME280;9945;46.010;8.946;2022-12-29T08:33:18;97844.19;;;11.01;72.12
19596;BME280;9945;46.010;8.946;2022-12-29T08:35:44;97843.56;;;11.47;69.78
19596;BME280;9945;46.010;8.946;2022-12-29T08:38:11;97844.19;;;11.11;70.58
19596;BME280;9945;46.010;8.946;2022-12-29T08:40:40;97846.09;;;10.99;71.64
19596;BME280;9945;46.010;8.946;2022-12-29T08:43:06;97854.69;;;11.11;71.50
19596;BME280;9945;46.010;8.946;2022-12-29T08:45:33;97846.28;;;11.17;70.71
19596;BME280;9945;46.010;8.946;2022-12-29T08:48:00;97840.75;;;11.20;70.38
19596;BME280;9945;46.010;8.946;2022-12-29T08:50:27;97851.50;;;11.17;70.04
19596;BME280;9945;46.010;8.946;2022-12-29T08:52:54;97842.44;;;11.30;69.37
19596;BME280;9945;46.010;8.946;2022-12-29T08:55:21;97851.13;;;11.21;69.60
19596;BME280;9945;46.010;8.946;2022-12-29T08:57:49;97850.53;;;11.08;70.38
19596;BME280;9945;46.010;8.946;2022-12-29T09:00:17;97843.69;;;11.36;69.51
19596;BME280;9945;46.010;8.946;2022-12-29T09:02:45;97841.19;;;11.54;69.28
19596;BME280;9945;46.010;8.946;2022-12-29T09:05:12;97847.53;;;11.42;68.22
19596;BME280;9945;46.010;8.946;2022-12-29T09:07:39;97841.34;;;11.52;68.42
19596;BME280;9945;46.010;8.946;2022-12-29T09:10:06;97842.56;;;11.58;68.32
19596;BME280;9945;46.010;8.946;2022-12-29T09:12:33;97842.69;;;11.27;70.14
19596;BME280;9945;46.010;8.946;2022-12-29T09:15:02;97853.72;;;11.41;68.88
19596;BME280;9945;46.010;8.946;2022-12-29T09:17:29;97859.41;;;11.46;69.05
19596;BME280;9945;46.010;8.946;2022-12-29T09:20:09;97854.44;;;11.43;69.64
19596;BME280;9945;46.010;8.946;2022-12-29T09:22:36;97859.28;;;11.37;68.92
19596;BME280;9945;46.010;8.946;2022-12-29T09:25:04;97859.28;;;11.37;68.95
19596;BME280;9945;46.010;8.946;2022-12-29T09:27:31;97861.09;;;11.75;67.91
19596;BME280;9945;46.010;8.946;2022-12-29T09:29:58;97856.66;;;12.05;67.27
19596;BME280;9945;46.010;8.946;2022-12-29T09:32:26;97860.41;;;12.49;65.99
19596;BME280;9945;46.010;8.946;2022-12-29T09:34:53;97860.34;;;13.58;60.47
19596;BME280;9945;46.010;8.946;2022-12-29T09:37:20;97853.94;;;13.25;60.23
19596;BME280;9945;46.010;8.946;2022-12-29T09:39:47;97850.72;;;12.77;61.10
19596;BME280;9945;46.010;8.946;2022-12-29T09:42:18;97839.88;;;12.62;63.69
19596;BME280;9945;46.010;8.946;2022-12-29T09:44:56;97838.31;;;12.69;62.08
19596;BME280;9945;46.010;8.946;2022-12-29T09:47:29;97836.56;;;12.87;61.21
19596;BME280;9945;46.010;8.946;2022-12-29T09:50:00;97840.75;;;13.35;59.77
19596;BME280;9945;46.010;8.946;2022-12-29T09:52:31;97840.91;;;13.95;58.96
19596;BME280;9945;46.010;8.946;2022-12-29T09:55:01;97851.28;;;14.74;55.62
19596;BME280;9945;46.010;8.946;2022-12-29T09:57:33;97851.28;;;14.74;55.04
19596;BME280;9945;46.010;8.946;2022-12-29T10:00:03;97854.28;;;14.79;54.55
19596;BME280;9945;46.010;8.946;2022-12-29T10:02:37;97842.09;;;15.44;53.44
19596;BME280;9945;46.010;8.946;2022-12-29T10:05:16;97842.56;;;14.82;53.87
19596;BME280;9945;46.010;8.946;2022-12-29T10:07:49;97835.19;;;14.25;55.29
19596;BME280;9945;46.010;8.946;2022-12-29T10:10:30;97838.00;;;13.62;57.58
19596;BME280;9945;46.010;8.946;2022-12-29T10:13:09;97835.81;;;12.95;59.83
19596;BME280;9945;46.010;8.946;2022-12-29T10:15:47;97828.06;;;12.76;61.60
19596;BME280;9945;46.010;8.946;2022-12-29T10:18:32;97822.69;;;13.40;58.34
19596;BME280;9945;46.010;8.946;2022-12-29T10:21:08;97813.34;;;13.28;60.68
19596;BME280;9945;46.010;8.946;2022-12-29T10:23:43;97812.28;;;13.74;58.96
19596;BME280;9945;46.010;8.946;2022-12-29T10:26:14;97819.56;;;13.80;57.93
19596;BME280;9945;46.010;8.946;2022-12-29T10:28:45;97816.94;;;14.32;56.13
19596;BME280;9945;46.010;8.946;2022-12-29T10:31:16;97811.03;;;14.64;54.68
19596;BME280;9945;46.010;8.946;2022-12-29T10:33:49;97811.84;;;15.06;53.33
19596;BME280;9945;46.010;8.946;2022-12-29T10:36:18;97818.75;;;14.99;53.80
19596;BME280;9945;46.010;8.946;2022-12-29T10:38:53;97809.38;;;14.97;54.04
19596;BME280;9945;46.010;8.946;2022-12-29T10:41:28;97811.28;;;14.79;53.57
19596;BME280;9945;46.010;8.946;2022-12-29T10:44:00;97805.31;;;14.68;50.72
19596;BME280;9945;46.010;8.946;2022-12-29T10:46:29;97804.56;;;14.92;49.79
19596;BME280;9945;46.010;8.946;2022-12-29T10:48:59;97800.59;;;14.88;49.42
19596;BME280;9945;46.010;8.946;2022-12-29T10:51:30;97800.38;;;14.73;48.04
19596;BME280;9945;46.010;8.946;2022-12-29T10:54:03;97802.56;;;14.86;47.68
19596;BME280;9945;46.010;8.946;2022-12-29T10:56:34;97791.94;;;15.20;47.81
19596;BME280;9945;46.010;8.946;2022-12-29T10:59:06;97781.75;;;15.74;47.32
19596;BME280;9945;46.010;8.946;2022-12-29T11:01:41;97780.56;;;15.93;48.75
19596;BME280;9945;46.010;8.946;2022-12-29T11:04:24;97774.31;;;15.37;50.18
19596;BME280;9945;46.010;8.946;2022-12-29T11:06:53;97772.97;;;15.25;50.66
19596;BME280;9945;46.010;8.946;2022-12-29T11:09:23;97763.75;;;15.53;48.19
19596;BME280;9945;46.010;8.946;2022-12-29T11:11:51;97764.47;;;14.89;48.88
19596;BME280;9945;46.010;8.946;2022-12-29T11:14:19;97750.56;;;15.37;47.71
19596;BME280;9945;46.010;8.946;2022-12-29T11:16:57;97752.84;;;15.32;46.72
19596;BME280;9945;46.010;8.946;2022-12-29T11:19:26;97759.59;;;15.18;47.60
19596;BME280;9945;46.010;8.946;2022-12-29T11:21:54;97755.72;;;14.80;49.02
19596;BME280;9945;46.010;8.946;2022-12-29T11:24:23;97757.47;;;15.05;47.35
19596;BME280;9945;46.010;8.946;2022-12-29T11:26:52;97753.19;;;15.53;47.50
19596;BME280;9945;46.010;8.946;2022-12-29T11:29:27;97747.63;;;15.56;46.69
19596;BME280;9945;46.010;8.946;2022-12-29T11:31:55;97742.97;;;15.58;46.99
19596;BME280;9945;46.010;8.946;2022-12-29T11:34:30;97741.66;;;15.13;47.53
19596;BME280;9945;46.010;8.946;2022-12-29T11:37:00;97731.22;;;14.88;47.51
19596;BME280;9945;46.010;8.946;2022-12-29T11:39:32;97732.81;;;14.81;47.75
19596;BME280;9945;46.010;8.946;2022-12-29T11:42:00;97732.16;;;14.70;48.38
19596;BME280;9945;46.010;8.946;2022-12-29T11:44:34;97727.91;;;14.86;48.03
19596;BME280;9945;46.010;8.946;2022-12-29T11:47:02;97733.16;;;14.69;50.00
19596;BME280;9945;46.010;8.946;2022-12-29T11:49:31;97727.22;;;14.75;48.23
19596;BME280;9945;46.010;8.946;2022-12-29T11:51:59;97722.06;;;14.58;47.73
19596;BME280;9945;46.010;8.946;2022-12-29T11:54:29;97714.75;;;14.94;47.73
19596;BME280;9945;46.010;8.946;2022-12-29T11:56:57;97716.22;;;14.88;46.99
19596;BME280;9945;46.010;8.946;2022-12-29T11:59:36;97715.28;;;15.13;46.11
19596;BME280;9945;46.010;8.946;2022-12-29T12:02:15;97707.66;;;15.43;44.84
19596;BME280;9945;46.010;8.946;2022-12-29T12:04:48;97717.56;;;15.33;45.86
19596;BME280;9945;46.010;8.946;2022-12-29T12:07:20;97709.31;;;15.36;45.49
19596;BME280;9945;46.010;8.946;2022-12-29T12:09:51;97704.53;;;15.23;45.08
19596;BME280;9945;46.010;8.946;2022-12-29T12:12:23;97698.78;;;16.62;43.65
19596;BME280;9945;46.010;8.946;2022-12-29T12:14:55;97698.41;;;18.74;41.12
19596;BME280;9945;46.010;8.946;2022-12-29T12:17:29;97687.84;;;19.94;39.40
19596;BME280;9945;46.010;8.946;2022-12-29T12:20:14;97687.00;;;20.69;36.99
19596;BME280;9945;46.010;8.946;2022-12-29T12:22:48;97667.28;;;21.31;36.41
19596;BME280;9945;46.010;8.946;2022-12-29T12:25:19;97673.75;;;23.10;33.85
19596;BME280;9945;46.010;8.946;2022-12-29T12:27:51;97678.78;;;23.56;32.42
19596;BME280;9945;46.010;8.946;2022-12-29T12:30:20;97678.16;;;22.53;33.71
19596;BME280;9945;46.010;8.946;2022-12-29T12:32:52;97673.59;;;21.82;34.14
19596;BME280;9945;46.010;8.946;2022-12-29T12:35:32;97669.31;;;20.07;35.77
19596;BME280;9945;46.010;8.946;2022-12-29T12:38:13;97667.97;;;19.34;37.82
19596;BME280;9945;46.010;8.946;2022-12-29T12:40:57;97672.22;;;19.28;37.77
19596;BME280;9945;46.010;8.946;2022-12-29T12:43:37;97670.66;;;18.41;38.66
19596;BME280;9945;46.010;8.946;2022-12-29T12:46:40;97681.00;;;17.25;40.28
19596;BME280;9945;46.010;8.946;2022-12-29T12:52:11;97678.25;;;15.86;43.81
19596;BME280;9945;46.010;8.946;2022-12-29T12:54:54;97673.38;;;15.19;44.17
19596;BME280;9945;46.010;8.946;2022-12-29T12:57:36;97672.88;;;15.23;44.07
19596;BME280;9945;46.010;8.946;2022-12-29T13:00:11;97666.13;;;14.96;43.69
19596;BME280;9945;46.010;8.946;2022-12-29T13:02:46;97667.53;;;14.50;45.59
19596;BME280;9945;46.010;8.946;2022-12-29T13:05:29;97670.03;;;14.60;48.59
19596;BME280;9945;46.010;8.946;2022-12-29T13:10:53;97653.13;;;14.28;51.74
19596;BME280;9945;46.010;8.946;2022-12-29T13:16:16;97648.84;;;13.85;52.50
19596;BME280;9945;46.010;8.946;2022-12-29T13:18:52;97638.00;;;13.88;51.92
19596;BME280;9945;46.010;8.946;2022-12-29T13:21:33;97633.53;;;13.81;50.80
19596;BME280;9945;46.010;8.946;2022-12-29T13:24:09;97632.13;;;13.94;50.80
19596;BME280;9945;46.010;8.946;2022-12-29T13:26:42;97622.59;;;14.01;50.75
19596;BME280;9945;46.010;8.946;2022-12-29T13:29:17;97626.34;;;13.91;50.51
19596;BME280;9945;46.010;8.946;2022-12-29T13:31:51;97619.28;;;13.57;51.43
19596;BME280;9945;46.010;8.946;2022-12-29T13:34:28;97621.06;;;13.57;52.09
19596;BME280;9945;46.010;8.946;2022-12-29T13:37:00;97619.72;;;13.53;50.58
19596;BME280;9945;46.010;8.946;2022-12-29T13:39:33;97619.91;;;13.51;50.52
19596;BME280;9945;46.010;8.946;2022-12-29T13:42:02;97617.44;;;13.24;52.09
19596;BME280;9945;46.010;8.946;2022-12-29T13:44:33;97614.28;;;13.20;51.85
19596;BME280;9945;46.010;8.946;2022-12-29T13:47:08;97616.59;;;13.23;53.29